sensor_id;sensor_type;location;lat;lon;timestamp;P1;durP1;ratioP1;P2;durP2;ratioP2
43519;SDS011;46848;51.980;5.918;2023-06-22T00:00:52;4.18;;;1.90;;
43519;SDS011;46848;51.980;5.918;2023-06-22T00:03:18;3.92;;;2.00;;
43519;SDS011;46848;51.980;5.918;2023-06-22T00:05:45;3.67;;;2.13;;
43519;SDS011;46848;51.980;5.918;2023-06-22T00:08:11;3.60;;;1.80;;
43519;SDS011;46848;51.980;5.918;2023-06-22T00:10:37;3.60;;;1.70;;
43519;SDS011;46848;51.980;5.918;2023-06-22T00:13:02;2.88;;;1.83;;
43519;SDS011;46848;51.980;5.918;2023-06-22T00:15:28;3.08;;;1.70;;
43519;SDS011;46848;51.980;5.918;2023-06-22T00:17:54;2.75;;;1.55;;
43519;SDS011;46848;51.980;5.918;2023-06-22T00:20:22;3.92;;;1.88;;
43519;SDS011;46848;51.980;5.918;2023-06-22T00:22:47;2.58;;;1.63;;
43519;SDS011;46848;51.980;5.918;2023-06-22T00:25:13;3.33;;;1.77;;
43519;SDS011;46848;51.980;5.918;2023-06-22T00:27:39;4.00;;;1.65;;
43519;SDS011;46848;51.980;5.918;2023-06-22T00:30:05;3.45;;;2.22;;
43519;SDS011;46848;51.980;5.918;2023-06-22T00:32:31;4.13;;;2.00;;
43519;SDS011;46848;51.980;5.918;2023-06-22T00:34:56;5.15;;;2.25;;
43519;SDS011;46848;51.980;5.918;2023-06-22T00:37:22;4.00;;;2.30;;
43519;SDS011;46848;51.980;5.918;2023-06-22T00:39:50;3.42;;;1.90;;
43519;SDS011;46848;51.980;5.918;2023-06-22T00:42:16;3.95;;;1.98;;
43519;SDS011;46848;51.980;5.918;2023-06-22T00:44:42;4.15;;;1.90;;
43519;SDS011;46848;51.980;5.918;2023-06-22T00:47:08;3.65;;;2.30;;
43519;SDS011;46848;51.980;5.918;2023-06-22T00:49:34;3.30;;;2.00;;
43519;SDS011;46848;51.980;5.918;2023-06-22T00:52:01;3.80;;;2.22;;
43519;SDS011;46848;51.980;5.918;2023-06-22T00:54:27;2.83;;;1.73;;
43519;SDS011;46848;51.980;5.918;2023-06-22T00:56:53;2.78;;;1.85;;
43519;SDS011;46848;51.980;5.918;2023-06-22T00:59:21;3.97;;;2.08;;
43519;SDS011;46848;51.980;5.918;2023-06-22T01:01:47;3.67;;;1.85;;
43519;SDS011;46848;51.980;5.918;2023-06-22T01:04:13;2.75;;;1.77;;
43519;SDS011;46848;51.980;5.918;2023-06-22T01:06:41;3.60;;;1.80;;
43519;SDS011;46848;51.980;5.918;2023-06-22T01:09:17;2.22;;;1.60;;
43519;SDS011;46848;51.980;5.918;2023-06-22T01:11:52;3.58;;;2.00;;
43519;SDS011;46848;51.980;5.918;2023-06-22T01:14:34;3.83;;;1.70;;
43519;SDS011;46848;51.980;5.918;2023-06-22T01:17:05;3.03;;;1.75;;
43519;SDS011;46848;51.980;5.918;2023-06-22T01:19:46;3.65;;;2.25;;
43519;SDS011;46848;51.980;5.918;2023-06-22T01:22:20;3.63;;;1.45;;
43519;SDS011;46848;51.980;5.918;2023-06-22T01:24:51;3.75;;;2.08;;
43519;SDS011;46848;51.980;5.918;2023-06-22T01:27:44;2.97;;;1.90;;
43519;SDS011;46848;51.980;5.918;2023-06-22T01:30:26;3.85;;;1.85;;
43519;SDS011;46848;51.980;5.918;2023-06-22T01:32:54;3.33;;;1.95;;
43519;SDS011;46848;51.980;5.918;2023-06-22T01:35:22;4.40;;;2.17;;
43519;SDS011;46848;51.980;5.918;2023-06-22T01:37:49;2.97;;;2.20;;
43519;SDS011;46848;51.980;5.918;2023-06-22T01:40:15;3.60;;;2.10;;
43519;SDS011;46848;51.980;5.918;2023-06-22T01:42:41;4.22;;;2.20;;
43519;SDS011;46848;51.980;5.918;2023-06-22T01:45:09;3.83;;;1.90;;
43519;SDS011;46848;51.980;5.918;2023-06-22T01:47:36;4.03;;;2.05;;
43519;SDS011;46848;51.980;5.918;2023-06-22T01:50:02;4.18;;;2.50;;
43519;SDS011;46848;51.980;5.918;2023-06-22T01:52:28;3.50;;;2.10;;
43519;SDS011;46848;51.980;5.918;2023-06-22T01:54:54;4.05;;;2.45;;
43519;SDS011;46848;51.980;5.918;2023-06-22T01:57:21;3.42;;;2.30;;
43519;SDS011;46848;51.980;5.918;2023-06-22T02:02:24;5.07;;;2.50;;
43519;SDS011;46848;51.980;5.918;2023-06-22T02:05:03;5.43;;;3.40;;
43519;SDS011;46848;51.980;5.918;2023-06-22T02:07:33;6.22;;;2.72;;
43519;SDS011;46848;51.980;5.918;2023-06-22T02:10:02;4.90;;;2.65;;
43519;SDS011;46848;51.980;5.918;2023-06-22T02:12:31;6.72;;;2.80;;
43519;SDS011;46848;51.980;5.918;2023-06-22T02:14:58;3.85;;;2.58;;
43519;SDS011;46848;51.980;5.918;2023-06-22T02:17:26;5.00;;;3.00;;
43519;SDS011;46848;51.980;5.918;2023-06-22T02:19:51;5.20;;;3.15;;
43519;SDS011;46848;51.980;5.918;2023-06-22T02:22:17;8.68;;;3.75;;
43519;SDS011;46848;51.980;5.918;2023-06-22T02:24:43;4.82;;;3.33;;
43519;SDS011;46848;51.980;5.918;2023-06-22T02:27:08;7.63;;;3.30;;
43519;SDS011;46848;51.980;5.918;2023-06-22T02:29:35;5.72;;;3.17;;
43519;SDS011;46848;51.980;5.918;2023-06-22T02:32:01;5.65;;;2.65;;
43519;SDS011;46848;51.980;5.918;2023-06-22T02:34:27;6.78;;;2.67;;
43519;SDS011;46848;51.980;5.918;2023-06-22T02:36:53;5.60;;;3.25;;
43519;SDS011;46848;51.980;5.918;2023-06-22T02:39:22;5.78;;;2.78;;
43519;SDS011;46848;51.980;5.918;2023-06-22T02:41:52;5.50;;;2.80;;
43519;SDS011;46848;51.980;5.918;2023-06-22T02:44:19;4.57;;;2.70;;
43519;SDS011;46848;51.980;5.918;2023-06-22T02:46:46;4.38;;;2.75;;
43519;SDS011;46848;51.980;5.918;2023-06-22T02:49:12;5.85;;;2.90;;
43519;SDS011;46848;51.980;5.918;2023-06-22T02:51:39;5.30;;;3.20;;
43519;SDS011;46848;51.980;5.918;2023-06-22T02:54:08;5.78;;;3.53;;
43519;SDS011;46848;51.980;5.918;2023-06-22T02:56:34;5.60;;;3.47;;
43519;SDS011;46848;51.980;5.918;2023-06-22T02:59:01;4.85;;;3.28;;
43519;SDS011;46848;51.980;5.918;2023-06-22T03:01:27;5.55;;;3.13;;
43519;SDS011;46848;51.980;5.918;2023-06-22T03:03:55;4.75;;;3.50;;
43519;SDS011;46848;51.980;5.918;2023-06-22T03:06:23;4.95;;;3.38;;
43519;SDS011;46848;51.980;5.918;2023-06-22T03:08:54;5.63;;;3.40;;
43519;SDS011;46848;51.980;5.918;2023-06-22T03:11:24;5.95;;;3.42;;
43519;SDS011;46848;51.980;5.918;2023-06-22T03:13:50;6.65;;;3.60;;
43519;SDS011;46848;51.980;5.918;2023-06-22T03:16:17;7.18;;;4.00;;
43519;SDS011;46848;51.980;5.918;2023-06-22T03:18:43;6.93;;;4.05;;
43519;SDS011;46848;51.980;5.918;2023-06-22T03:21:08;6.53;;;4.32;;
43519;SDS011;46848;51.980;5.918;2023-06-22T03:23:34;7.60;;;4.85;;
43519;SDS011;46848;51.980;5.918;2023-06-22T03:26:00;6.43;;;4.75;;
43519;SDS011;46848;51.980;5.918;2023-06-22T03:28:26;7.60;;;4.95;;
43519;SDS011;46848;51.980;5.918;2023-06-22T03:30:51;6.80;;;4.43;;
43519;SDS011;46848;51.980;5.918;2023-06-22T03:33:17;8.13;;;4.93;;
43519;SDS011;46848;51.980;5.918;2023-06-22T03:35:42;7.07;;;4.72;;
43519;SDS011;46848;51.980;5.918;2023-06-22T03:38:08;6.85;;;4.82;;
43519;SDS011;46848;51.980;5.918;2023-06-22T03:40:33;8.65;;;5.72;;
43519;SDS011;46848;51.980;5.918;2023-06-22T03:42:59;8.18;;;5.03;;
43519;SDS011;46848;51.980;5.918;2023-06-22T03:45:24;6.85;;;5.45;;
43519;SDS011;46848;51.980;5.918;2023-06-22T03:47:50;7.53;;;5.18;;
43519;SDS011;46848;51.980;5.918;2023-06-22T03:50:16;8.65;;;5.45;;
43519;SDS011;46848;51.980;5.918;2023-06-22T03:52:41;9.07;;;6.05;;
43519;SDS011;46848;51.980;5.918;2023-06-22T03:55:07;8.48;;;5.13;;
43519;SDS011;46848;51.980;5.918;2023-06-22T03:57:33;6.25;;;4.60;;
43519;SDS011;46848;51.980;5.918;2023-06-22T03:59:59;8.20;;;6.28;;
43519;SDS011;46848;51.980;5.918;2023-06-22T04:02:24;8.93;;;5.72;;
43519;SDS011;46848;51.980;5.918;2023-06-22T04:04:50;8.80;;;5.75;;
43519;SDS011;46848;51.980;5.918;2023-06-22T04:07:16;7.28;;;5.55;;
43519;SDS011;46848;51.980;5.918;2023-06-22T04:09:42;10.77;;;6.53;;
43519;SDS011;46848;51.980;5.918;2023-06-22T04:12:08;8.45;;;6.28;;
43519;SDS011;46848;51.980;5.918;2023-06-22T04:14:34;9.57;;;6.50;;
43519;SDS011;46848;51.980;5.918;2023-06-22T04:17:00;12.30;;;7.53;;
43519;SDS011;46848;51.980;5.918;2023-06-22T04:19:26;9.88;;;6.70;;
43519;SDS011;46848;51.980;5.918;2023-06-22T04:21:52;10.90;;;7.45;;
43519;SDS011;46848;51.980;5.918;2023-06-22T04:24:17;9.75;;;7.18;;
43519;SDS011;46848;51.980;5.918;2023-06-22T04:26:43;10.32;;;8.10;;
43519;SDS011;46848;51.980;5.918;2023-06-22T04:29:10;12.10;;;8.52;;
43519;SDS011;46848;51.980;5.918;2023-06-22T04:31:36;9.60;;;7.57;;
43519;SDS011;46848;51.980;5.918;2023-06-22T04:34:02;10.95;;;7.82;;
43519;SDS011;46848;51.980;5.918;2023-06-22T04:36:35;10.73;;;6.85;;
43519;SDS011;46848;51.980;5.918;2023-06-22T04:39:08;10.60;;;7.25;;
43519;SDS011;46848;51.980;5.918;2023-06-22T04:41:38;9.83;;;6.83;;
43519;SDS011;46848;51.980;5.918;2023-06-22T04:44:08;9.57;;;7.85;;
43519;SDS011;46848;51.980;5.918;2023-06-22T04:46:35;12.60;;;8.05;;
43519;SDS011;46848;51.980;5.918;2023-06-22T04:49:06;11.40;;;8.80;;
43519;SDS011;46848;51.980;5.918;2023-06-22T04:51:40;11.40;;;9.35;;
43519;SDS011;46848;51.980;5.918;2023-06-22T04:54:07;9.57;;;7.47;;
43519;SDS011;46848;51.980;5.918;2023-06-22T04:56:33;11.55;;;9.00;;
43519;SDS011;46848;51.980;5.918;2023-06-22T04:58:59;13.23;;;9.35;;
43519;SDS011;46848;51.980;5.918;2023-06-22T05:01:25;11.05;;;8.90;;
43519;SDS011;46848;51.980;5.918;2023-06-22T05:03:51;10.05;;;8.77;;
43519;SDS011;46848;51.980;5.918;2023-06-22T05:06:26;10.70;;;8.07;;
43519;SDS011;46848;51.980;5.918;2023-06-22T05:08:55;9.52;;;7.32;;
43519;SDS011;46848;51.980;5.918;2023-06-22T05:11:25;13.85;;;9.55;;
43519;SDS011;46848;51.980;5.918;2023-06-22T05:13:54;11.27;;;9.00;;
43519;SDS011;46848;51.980;5.918;2023-06-22T05:16:21;11.23;;;8.75;;
43519;SDS011;46848;51.980;5.918;2023-06-22T05:18:58;10.85;;;8.68;;
43519;SDS011;46848;51.980;5.918;2023-06-22T05:21:24;11.18;;;8.23;;
43519;SDS011;46848;51.980;5.918;2023-06-22T05:23:51;9.57;;;6.57;;
43519;SDS011;46848;51.980;5.918;2023-06-22T05:26:18;10.48;;;8.50;;
43519;SDS011;46848;51.980;5.918;2023-06-22T05:28:45;11.55;;;8.55;;
43519;SDS011;46848;51.980;5.918;2023-06-22T05:31:14;11.35;;;7.88;;
43519;SDS011;46848;51.980;5.918;2023-06-22T05:33:41;9.05;;;7.07;;
43519;SDS011;46848;51.980;5.918;2023-06-22T05:36:07;12.15;;;8.63;;
43519;SDS011;46848;51.980;5.918;2023-06-22T05:38:33;8.02;;;6.68;;
43519;SDS011;46848;51.980;5.918;2023-06-22T05:40:59;8.55;;;7.05;;
43519;SDS011;46848;51.980;5.918;2023-06-22T05:43:25;10.88;;;7.97;;
43519;SDS011;46848;51.980;5.918;2023-06-22T05:45:51;11.88;;;8.32;;
43519;SDS011;46848;51.980;5.918;2023-06-22T05:48:17;9.02;;;7.28;;
43519;SDS011;46848;51.980;5.918;2023-06-22T05:50:42;8.70;;;6.82;;
43519;SDS011;46848;51.980;5.918;2023-06-22T05:53:08;9.27;;;6.88;;
43519;SDS011;46848;51.980;5.918;2023-06-22T05:55:33;11.02;;;8.27;;
43519;SDS011;46848;51.980;5.918;2023-06-22T05:57:59;10.93;;;7.30;;
43519;SDS011;46848;51.980;5.918;2023-06-22T06:00:25;10.60;;;8.25;;
43519;SDS011;46848;51.980;5.918;2023-06-22T06:02:50;8.77;;;6.60;;
43519;SDS011;46848;51.980;5.918;2023-06-22T06:05:16;8.98;;;7.03;;
43519;SDS011;46848;51.980;5.918;2023-06-22T06:07:42;11.15;;;8.23;;
43519;SDS011;46848;51.980;5.918;2023-06-22T06:10:08;10.93;;;7.78;;
43519;SDS011;46848;51.980;5.918;2023-06-22T06:12:34;12.38;;;7.47;;
43519;SDS011;46848;51.980;5.918;2023-06-22T06:15:00;9.95;;;6.88;;
43519;SDS011;46848;51.980;5.918;2023-06-22T06:17:26;8.05;;;6.50;;
43519;SDS011;46848;51.980;5.918;2023-06-22T06:19:52;9.73;;;6.20;;
43519;SDS011;46848;51.980;5.918;2023-06-22T06:22:17;8.82;;;5.65;;
43519;SDS011;46848;51.980;5.918;2023-06-22T06:24:44;7.50;;;5.63;;
43519;SDS011;46848;51.980;5.918;2023-06-22T06:27:10;8.13;;;5.90;;
43519;SDS011;46848;51.980;5.918;2023-06-22T06:29:36;8.85;;;7.43;;
43519;SDS011;46848;51.980;5.918;2023-06-22T06:32:01;8.90;;;6.43;;
43519;SDS011;46848;51.980;5.918;2023-06-22T06:34:27;8.80;;;5.57;;
43519;SDS011;46848;51.980;5.918;2023-06-22T06:36:52;10.00;;;7.75;;
43519;SDS011;46848;51.980;5.918;2023-06-22T06:39:18;9.13;;;6.75;;
43519;SDS011;46848;51.980;5.918;2023-06-22T06:41:44;8.50;;;6.45;;
43519;SDS011;46848;51.980;5.918;2023-06-22T06:44:10;7.38;;;5.55;;
43519;SDS011;46848;51.980;5.918;2023-06-22T06:46:35;7.68;;;5.05;;
43519;SDS011;46848;51.980;5.918;2023-06-22T06:49:01;8.25;;;5.53;;
43519;SDS011;46848;51.980;5.918;2023-06-22T06:51:26;6.90;;;5.00;;
43519;SDS011;46848;51.980;5.918;2023-06-22T06:53:52;10.05;;;5.68;;
43519;SDS011;46848;51.980;5.918;2023-06-22T06:56:18;7.78;;;5.68;;
43519;SDS011;46848;51.980;5.918;2023-06-22T06:58:43;10.80;;;7.78;;
43519;SDS011;46848;51.980;5.918;2023-06-22T07:01:10;6.97;;;4.93;;
43519;SDS011;46848;51.980;5.918;2023-06-22T07:03:37;7.63;;;5.55;;
43519;SDS011;46848;51.980;5.918;2023-06-22T07:06:03;9.55;;;6.97;;
43519;SDS011;46848;51.980;5.918;2023-06-22T07:08:29;8.20;;;6.22;;
43519;SDS011;46848;51.980;5.918;2023-06-22T07:10:54;8.73;;;6.80;;
43519;SDS011;46848;51.980;5.918;2023-06-22T07:13:20;10.55;;;6.35;;
43519;SDS011;46848;51.980;5.918;2023-06-22T07:15:45;10.65;;;5.65;;
43519;SDS011;46848;51.980;5.918;2023-06-22T07:18:11;6.75;;;5.00;;
43519;SDS011;46848;51.980;5.918;2023-06-22T07:20:37;6.45;;;4.75;;
43519;SDS011;46848;51.980;5.918;2023-06-22T07:23:04;7.55;;;4.85;;
43519;SDS011;46848;51.980;5.918;2023-06-22T07:25:30;8.27;;;5.55;;
43519;SDS011;46848;51.980;5.918;2023-06-22T07:30:26;6.90;;;5.47;;
43519;SDS011;46848;51.980;5.918;2023-06-22T07:32:52;8.05;;;5.75;;
43519;SDS011;46848;51.980;5.918;2023-06-22T07:35:18;9.77;;;6.65;;
43519;SDS011;46848;51.980;5.918;2023-06-22T07:37:44;8.00;;;5.78;;
43519;SDS011;46848;51.980;5.918;2023-06-22T07:40:09;6.32;;;4.90;;
43519;SDS011;46848;51.980;5.918;2023-06-22T07:42:35;7.95;;;5.10;;
43519;SDS011;46848;51.980;5.918;2023-06-22T07:45:02;8.23;;;5.28;;
43519;SDS011;46848;51.980;5.918;2023-06-22T07:47:29;8.45;;;4.75;;
43519;SDS011;46848;51.980;5.918;2023-06-22T07:49:55;8.13;;;5.22;;
43519;SDS011;46848;51.980;5.918;2023-06-22T07:52:25;7.70;;;5.30;;
43519;SDS011;46848;51.980;5.918;2023-06-22T07:54:51;6.60;;;4.82;;
43519;SDS011;46848;51.980;5.918;2023-06-22T07:57:16;7.03;;;4.45;;
43519;SDS011;46848;51.980;5.918;2023-06-22T07:59:42;7.55;;;5.10;;
43519;SDS011;46848;51.980;5.918;2023-06-22T08:02:07;6.93;;;4.40;;
43519;SDS011;46848;51.980;5.918;2023-06-22T08:04:34;7.43;;;5.07;;
43519;SDS011;46848;51.980;5.918;2023-06-22T08:07:00;6.88;;;4.53;;
43519;SDS011;46848;51.980;5.918;2023-06-22T08:09:27;7.13;;;4.55;;
43519;SDS011;46848;51.980;5.918;2023-06-22T08:11:54;6.50;;;4.53;;
43519;SDS011;46848;51.980;5.918;2023-06-22T08:14:21;6.30;;;4.93;;
43519;SDS011;46848;51.980;5.918;2023-06-22T08:16:48;6.47;;;4.53;;
43519;SDS011;46848;51.980;5.918;2023-06-22T08:19:13;5.25;;;3.83;;
43519;SDS011;46848;51.980;5.918;2023-06-22T08:21:39;7.18;;;4.53;;
43519;SDS011;46848;51.980;5.918;2023-06-22T08:24:05;6.57;;;4.45;;
43519;SDS011;46848;51.980;5.918;2023-06-22T08:26:32;5.95;;;4.32;;
43519;SDS011;46848;51.980;5.918;2023-06-22T08:29:01;5.95;;;4.55;;
43519;SDS011;46848;51.980;5.918;2023-06-22T08:31:27;6.95;;;4.40;;
43519;SDS011;46848;51.980;5.918;2023-06-22T08:33:52;6.25;;;3.70;;
43519;SDS011;46848;51.980;5.918;2023-06-22T08:36:18;6.90;;;4.95;;
43519;SDS011;46848;51.980;5.918;2023-06-22T08:38:43;6.68;;;4.43;;
43519;SDS011;46848;51.980;5.918;2023-06-22T08:41:09;6.43;;;3.63;;
43519;SDS011;46848;51.980;5.918;2023-06-22T08:43:35;10.45;;;3.95;;
43519;SDS011;46848;51.980;5.918;2023-06-22T08:46:02;7.55;;;4.30;;
43519;SDS011;46848;51.980;5.918;2023-06-22T08:48:28;5.90;;;3.90;;
43519;SDS011;46848;51.980;5.918;2023-06-22T08:50:54;5.97;;;4.15;;
43519;SDS011;46848;51.980;5.918;2023-06-22T08:53:19;6.63;;;3.97;;
43519;SDS011;46848;51.980;5.918;2023-06-22T08:55:45;5.32;;;3.63;;
43519;SDS011;46848;51.980;5.918;2023-06-22T08:58:10;5.38;;;3.38;;
43519;SDS011;46848;51.980;5.918;2023-06-22T09:00:36;5.13;;;3.75;;
43519;SDS011;46848;51.980;5.918;2023-06-22T09:03:02;6.47;;;3.60;;
43519;SDS011;46848;51.980;5.918;2023-06-22T09:05:28;7.00;;;4.07;;
43519;SDS011;46848;51.980;5.918;2023-06-22T09:07:55;7.05;;;4.55;;
43519;SDS011;46848;51.980;5.918;2023-06-22T09:10:21;4.10;;;3.33;;
43519;SDS011;46848;51.980;5.918;2023-06-22T09:12:47;4.47;;;2.97;;
43519;SDS011;46848;51.980;5.918;2023-06-22T09:15:12;6.70;;;4.00;;
43519;SDS011;46848;51.980;5.918;2023-06-22T09:17:39;5.13;;;3.30;;
43519;SDS011;46848;51.980;5.918;2023-06-22T09:20:05;5.20;;;3.50;;
43519;SDS011;46848;51.980;5.918;2023-06-22T09:22:32;4.68;;;3.17;;
43519;SDS011;46848;51.980;5.918;2023-06-22T09:24:58;6.38;;;4.38;;
43519;SDS011;46848;51.980;5.918;2023-06-22T09:27:24;5.35;;;3.40;;
43519;SDS011;46848;51.980;5.918;2023-06-22T09:29:50;6.72;;;3.45;;
43519;SDS011;46848;51.980;5.918;2023-06-22T09:32:16;4.57;;;3.33;;
43519;SDS011;46848;51.980;5.918;2023-06-22T09:34:41;4.85;;;3.20;;
43519;SDS011;46848;51.980;5.918;2023-06-22T09:37:07;5.53;;;3.53;;
43519;SDS011;46848;51.980;5.918;2023-06-22T09:39:32;6.32;;;4.10;;
43519;SDS011;46848;51.980;5.918;2023-06-22T09:41:59;5.25;;;3.20;;
43519;SDS011;46848;51.980;5.918;2023-06-22T09:44:25;5.18;;;3.03;;
43519;SDS011;46848;51.980;5.918;2023-06-22T09:46:51;5.72;;;2.92;;
43519;SDS011;46848;51.980;5.918;2023-06-22T09:49:16;5.47;;;3.35;;
43519;SDS011;46848;51.980;5.918;2023-06-22T09:51:42;4.35;;;3.15;;
43519;SDS011;46848;51.980;5.918;2023-06-22T09:54:08;4.43;;;2.78;;
43519;SDS011;46848;51.980;5.918;2023-06-22T09:56:33;6.63;;;4.00;;
43519;SDS011;46848;51.980;5.918;2023-06-22T09:58:59;5.35;;;3.10;;
43519;SDS011;46848;51.980;5.918;2023-06-22T10:01:24;5.15;;;3.50;;
43519;SDS011;46848;51.980;5.918;2023-06-22T10:03:52;6.60;;;3.53;;
43519;SDS011;46848;51.980;5.918;2023-06-22T10:06:20;5.10;;;3.30;;
43519;SDS011;46848;51.980;5.918;2023-06-22T10:08:46;5.57;;;3.78;;
43519;SDS011;46848;51.980;5.918;2023-06-22T10:11:13;7.53;;;3.08;;
43519;SDS011;46848;51.980;5.918;2023-06-22T10:13:38;3.55;;;2.70;;
43519;SDS011;46848;51.980;5.918;2023-06-22T10:16:04;4.25;;;3.10;;
43519;SDS011;46848;51.980;5.918;2023-06-22T10:18:30;5.65;;;2.58;;
43519;SDS011;46848;51.980;5.918;2023-06-22T10:20:55;4.68;;;3.05;;
43519;SDS011;46848;51.980;5.918;2023-06-22T10:23:21;5.75;;;3.08;;
43519;SDS011;46848;51.980;5.918;2023-06-22T10:25:47;4.88;;;3.17;;
43519;SDS011;46848;51.980;5.918;2023-06-22T10:28:13;5.82;;;2.95;;
43519;SDS011;46848;51.980;5.918;2023-06-22T10:30:39;4.82;;;3.08;;
43519;SDS011;46848;51.980;5.918;2023-06-22T10:33:08;4.00;;;3.08;;
43519;SDS011;46848;51.980;5.918;2023-06-22T10:35:35;4.38;;;2.90;;
43519;SDS011;46848;51.980;5.918;2023-06-22T10:38:02;4.35;;;2.92;;
43519;SDS011;46848;51.980;5.918;2023-06-22T10:40:28;6.25;;;3.72;;
43519;SDS011;46848;51.980;5.918;2023-06-22T10:42:54;4.53;;;2.85;;
43519;SDS011;46848;51.980;5.918;2023-06-22T10:45:20;5.13;;;3.22;;
43519;SDS011;46848;51.980;5.918;2023-06-22T10:47:45;4.68;;;3.20;;
43519;SDS011;46848;51.980;5.918;2023-06-22T10:50:11;5.35;;;3.30;;
43519;SDS011;46848;51.980;5.918;2023-06-22T10:52:37;6.45;;;3.58;;
43519;SDS011;46848;51.980;5.918;2023-06-22T10:55:03;5.40;;;3.92;;
43519;SDS011;46848;51.980;5.918;2023-06-22T10:57:29;4.82;;;3.17;;
43519;SDS011;46848;51.980;5.918;2023-06-22T10:59:55;5.03;;;3.00;;
43519;SDS011;46848;51.980;5.918;2023-06-22T11:02:20;5.95;;;3.13;;
43519;SDS011;46848;51.980;5.918;2023-06-22T11:04:46;5.20;;;3.40;;
43519;SDS011;46848;51.980;5.918;2023-06-22T11:07:12;5.80;;;3.92;;
43519;SDS011;46848;51.980;5.918;2023-06-22T11:09:38;8.90;;;3.80;;
43519;SDS011;46848;51.980;5.918;2023-06-22T11:12:04;4.75;;;3.63;;
43519;SDS011;46848;51.980;5.918;2023-06-22T11:14:31;5.53;;;3.65;;
43519;SDS011;46848;51.980;5.918;2023-06-22T11:16:58;6.20;;;4.00;;
43519;SDS011;46848;51.980;5.918;2023-06-22T11:19:24;4.38;;;3.22;;
43519;SDS011;46848;51.980;5.918;2023-06-22T11:21:49;4.80;;;3.40;;
43519;SDS011;46848;51.980;5.918;2023-06-22T11:24:16;5.55;;;3.30;;
43519;SDS011;46848;51.980;5.918;2023-06-22T11:26:42;5.13;;;3.13;;
43519;SDS011;46848;51.980;5.918;2023-06-22T11:29:07;5.10;;;3.67;;
43519;SDS011;46848;51.980;5.918;2023-06-22T11:31:34;7.18;;;4.30;;
43519;SDS011;46848;51.980;5.918;2023-06-22T11:34:00;5.60;;;4.18;;
43519;SDS011;46848;51.980;5.918;2023-06-22T11:36:25;8.93;;;4.10;;
43519;SDS011;46848;51.980;5.918;2023-06-22T11:38:51;9.00;;;4.25;;
43519;SDS011;46848;51.980;5.918;2023-06-22T11:41:17;6.20;;;4.20;;
43519;SDS011;46848;51.980;5.918;2023-06-22T11:43:42;5.18;;;3.83;;
43519;SDS011;46848;51.980;5.918;2023-06-22T11:46:08;6.70;;;4.25;;
43519;SDS011;46848;51.980;5.918;2023-06-22T11:48:35;5.47;;;4.03;;
43519;SDS011;46848;51.980;5.918;2023-06-22T11:51:01;5.55;;;3.90;;
43519;SDS011;46848;51.980;5.918;2023-06-22T11:53:28;5.32;;;4.07;;
43519;SDS011;46848;51.980;5.918;2023-06-22T11:55:54;7.00;;;4.30;;
43519;SDS011;46848;51.980;5.918;2023-06-22T11:58:20;7.57;;;4.10;;
43519;SDS011;46848;51.980;5.918;2023-06-22T12:00:46;6.88;;;4.53;;
43519;SDS011;46848;51.980;5.918;2023-06-22T12:03:12;6.20;;;4.50;;
43519;SDS011;46848;51.980;5.918;2023-06-22T12:05:39;6.70;;;4.43;;
43519;SDS011;46848;51.980;5.918;2023-06-22T12:08:05;6.28;;;4.85;;
43519;SDS011;46848;51.980;5.918;2023-06-22T12:10:31;6.30;;;5.00;;
43519;SDS011;46848;51.980;5.918;2023-06-22T12:12:57;6.95;;;4.72;;
43519;SDS011;46848;51.980;5.918;2023-06-22T12:15:24;6.93;;;5.45;;
43519;SDS011;46848;51.980;5.918;2023-06-22T12:17:50;8.77;;;5.07;;
43519;SDS011;46848;51.980;5.918;2023-06-22T12:20:16;7.97;;;5.15;;
43519;SDS011;46848;51.980;5.918;2023-06-22T12:22:42;7.07;;;5.13;;
43519;SDS011;46848;51.980;5.918;2023-06-22T12:25:08;7.70;;;5.03;;
43519;SDS011;46848;51.980;5.918;2023-06-22T12:27:34;7.63;;;5.35;;
43519;SDS011;46848;51.980;5.918;2023-06-22T12:30:00;9.90;;;5.35;;
43519;SDS011;46848;51.980;5.918;2023-06-22T12:32:27;10.85;;;5.38;;
43519;SDS011;46848;51.980;5.918;2023-06-22T12:34:52;9.55;;;6.10;;
43519;SDS011;46848;51.980;5.918;2023-06-22T12:37:18;8.95;;;5.22;;
43519;SDS011;46848;51.980;5.918;2023-06-22T12:39:44;7.75;;;5.07;;
43519;SDS011;46848;51.980;5.918;2023-06-22T12:42:10;6.97;;;5.00;;
43519;SDS011;46848;51.980;5.918;2023-06-22T12:44:37;8.77;;;5.55;;
43519;SDS011;46848;51.980;5.918;2023-06-22T12:47:03;8.35;;;5.93;;
43519;SDS011;46848;51.980;5.918;2023-06-22T12:49:29;9.15;;;6.18;;
43519;SDS011;46848;51.980;5.918;2023-06-22T12:51:55;7.95;;;5.47;;
43519;SDS011;46848;51.980;5.918;2023-06-22T12:54:20;10.45;;;5.93;;
43519;SDS011;46848;51.980;5.918;2023-06-22T12:56:46;7.28;;;5.32;;
43519;SDS011;46848;51.980;5.918;2023-06-22T12:59:12;9.05;;;6.25;;
43519;SDS011;46848;51.980;5.918;2023-06-22T13:01:38;9.55;;;6.72;;
43519;SDS011;46848;51.980;5.918;2023-06-22T13:04:03;7.28;;;5.80;;
43519;SDS011;46848;51.980;5.918;2023-06-22T13:06:30;8.23;;;6.38;;
43519;SDS011;46848;51.980;5.918;2023-06-22T13:08:55;9.38;;;6.20;;
43519;SDS011;46848;51.980;5.918;2023-06-22T13:11:21;7.40;;;5.47;;
43519;SDS011;46848;51.980;5.918;2023-06-22T13:13:46;8.77;;;5.03;;
43519;SDS011;46848;51.980;5.918;2023-06-22T13:16:12;8.98;;;5.93;;
43519;SDS011;46848;51.980;5.918;2023-06-22T13:18:38;7.90;;;5.18;;
43519;SDS011;46848;51.980;5.918;2023-06-22T13:21:04;6.85;;;6.15;;
43519;SDS011;46848;51.980;5.918;2023-06-22T13:23:29;8.07;;;6.68;;
43519;SDS011;46848;51.980;5.918;2023-06-22T13:25:55;9.35;;;6.70;;
43519;SDS011;46848;51.980;5.918;2023-06-22T13:28:22;9.27;;;6.50;;
43519;SDS011;46848;51.980;5.918;2023-06-22T13:30:47;8.57;;;5.95;;
43519;SDS011;46848;51.980;5.918;2023-06-22T13:33:13;8.18;;;6.65;;
43519;SDS011;46848;51.980;5.918;2023-06-22T13:35:39;8.80;;;6.70;;
43519;SDS011;46848;51.980;5.918;2023-06-22T13:38:07;9.00;;;7.07;;
43519;SDS011;46848;51.980;5.918;2023-06-22T13:40:34;10.15;;;8.13;;
43519;SDS011;46848;51.980;5.918;2023-06-22T13:42:59;8.82;;;7.28;;
43519;SDS011;46848;51.980;5.918;2023-06-22T13:45:25;8.55;;;6.97;;
43519;SDS011;46848;51.980;5.918;2023-06-22T13:47:51;9.00;;;7.30;;
43519;SDS011;46848;51.980;5.918;2023-06-22T13:50:17;8.93;;;7.25;;
43519;SDS011;46848;51.980;5.918;2023-06-22T13:52:43;8.85;;;6.47;;
43519;SDS011;46848;51.980;5.918;2023-06-22T13:55:08;9.27;;;7.30;;
43519;SDS011;46848;51.980;5.918;2023-06-22T13:57:35;8.60;;;7.13;;
43519;SDS011;46848;51.980;5.918;2023-06-22T14:00:01;12.35;;;8.27;;
43519;SDS011;46848;51.980;5.918;2023-06-22T14:02:27;8.55;;;7.07;;
43519;SDS011;46848;51.980;5.918;2023-06-22T14:04:53;9.32;;;7.20;;
43519;SDS011;46848;51.980;5.918;2023-06-22T14:07:19;10.05;;;8.18;;
43519;SDS011;46848;51.980;5.918;2023-06-22T14:09:45;8.15;;;6.60;;
43519;SDS011;46848;51.980;5.918;2023-06-22T14:12:11;8.77;;;6.78;;
43519;SDS011;46848;51.980;5.918;2023-06-22T14:14:37;9.73;;;7.55;;
43519;SDS011;46848;51.980;5.918;2023-06-22T14:17:03;9.25;;;7.47;;
43519;SDS011;46848;51.980;5.918;2023-06-22T14:19:29;9.48;;;8.05;;
43519;SDS011;46848;51.980;5.918;2023-06-22T14:21:55;10.27;;;7.43;;
43519;SDS011;46848;51.980;5.918;2023-06-22T14:24:21;11.07;;;8.13;;
43519;SDS011;46848;51.980;5.918;2023-06-22T14:26:47;11.00;;;7.35;;
43519;SDS011;46848;51.980;5.918;2023-06-22T14:29:13;9.30;;;7.70;;
43519;SDS011;46848;51.980;5.918;2023-06-22T14:31:39;12.95;;;9.48;;
43519;SDS011;46848;51.980;5.918;2023-06-22T14:34:04;11.32;;;9.25;;
43519;SDS011;46848;51.980;5.918;2023-06-22T14:36:30;12.55;;;8.07;;
43519;SDS011;46848;51.980;5.918;2023-06-22T14:38:56;10.32;;;8.15;;
43519;SDS011;46848;51.980;5.918;2023-06-22T14:41:22;11.75;;;8.70;;
43519;SDS011;46848;51.980;5.918;2023-06-22T14:43:48;12.20;;;8.77;;
43519;SDS011;46848;51.980;5.918;2023-06-22T14:46:15;10.48;;;9.00;;